createdAt,value
2018-12-03T00:00:24.969Z,7.17
2018-12-03T00:02:57.808Z,7.50
2018-12-03T00:05:26.147Z,7.60
2018-12-03T00:07:54.439Z,8.90
2018-12-03T00:10:22.675Z,8.30
2018-12-03T00:12:50.900Z,9.17
2018-12-03T00:15:19.269Z,10.03
2018-12-03T00:17:47.595Z,10.50
2018-12-03T00:20:15.935Z,10.80
2018-12-03T00:22:44.260Z,11.57
2018-12-03T00:25:12.549Z,11.57
2018-12-03T00:27:42.325Z,12.70
2018-12-03T00:30:10.672Z,13.00
2018-12-03T00:32:38.948Z,12.43
2018-12-03T00:35:08.951Z,13.47
2018-12-03T00:37:37.200Z,14.37
2018-12-03T00:40:06.788Z,14.30
2018-12-03T00:42:35.093Z,13.87
2018-12-03T00:45:03.398Z,14.27
2018-12-03T00:47:31.681Z,15.20
2018-12-03T00:49:59.879Z,15.80
2018-12-03T00:52:28.090Z,17.23
2018-12-03T00:54:56.394Z,15.93
2018-12-03T00:57:24.643Z,17.37
2018-12-03T00:59:52.928Z,18.23
2018-12-03T01:02:25.044Z,18.17
2018-12-03T01:04:53.669Z,19.27
2018-12-03T01:07:22.217Z,18.87
2018-12-03T01:09:50.517Z,19.23
2018-12-03T01:12:18.799Z,18.07
2018-12-03T01:14:47.158Z,19.40
2018-12-03T01:17:15.464Z,19.00
2018-12-03T01:19:43.755Z,17.47
2018-12-03T01:22:12.057Z,17.67
2018-12-03T01:24:40.632Z,17.47
2018-12-03T01:27:08.882Z,16.67
2018-12-03T01:29:37.135Z,18.13
2018-12-03T01:32:05.433Z,17.60
2018-12-03T01:34:33.935Z,17.37
2018-12-03T01:37:02.186Z,17.57
2018-12-03T01:42:23.147Z,17.17
2018-12-03T01:44:51.491Z,17.43
2018-12-03T01:47:19.753Z,17.97
2018-12-03T01:49:48.103Z,16.70
2018-12-03T01:52:16.322Z,17.00
2018-12-03T01:54:44.543Z,18.13
2018-12-03T01:57:12.853Z,16.37
2018-12-03T01:59:41.163Z,17.97
2018-12-03T02:02:09.452Z,18.00
2018-12-03T02:04:37.660Z,17.40
2018-12-03T02:07:05.968Z,17.27
2018-12-03T02:09:34.489Z,17.83
2018-12-03T02:12:02.690Z,17.17
2018-12-03T02:14:30.904Z,16.83
2018-12-03T02:16:59.182Z,17.47
2018-12-03T02:19:27.413Z,16.30
2018-12-03T02:21:55.659Z,17.30
2018-12-03T02:24:23.921Z,17.00
2018-12-03T02:26:52.229Z,16.10
2018-12-03T02:29:20.456Z,16.90
2018-12-03T02:31:48.632Z,15.83
2018-12-03T02:34:16.944Z,15.57
2018-12-03T02:36:45.220Z,15.63
2018-12-03T02:39:13.446Z,16.60
2018-12-03T02:41:41.673Z,16.50
2018-12-03T02:44:09.927Z,16.57
2018-12-03T02:46:38.148Z,16.17
2018-12-03T02:49:06.590Z,16.23
2018-12-03T02:51:34.854Z,17.30
2018-12-03T02:54:03.177Z,17.27
2018-12-03T02:56:31.403Z,16.77
2018-12-03T02:58:59.637Z,16.23
2018-12-03T03:01:27.864Z,16.83
2018-12-03T03:03:56.129Z,17.50
2018-12-03T03:06:24.437Z,17.60
2018-12-03T03:08:52.724Z,16.80
2018-12-03T03:11:20.969Z,18.27
2018-12-03T03:13:49.182Z,18.13
2018-12-03T03:16:17.364Z,17.20
2018-12-03T03:18:45.615Z,17.30
2018-12-03T03:21:13.893Z,17.80
2018-12-03T03:23:42.148Z,18.80
2018-12-03T03:26:10.388Z,17.17
2018-12-03T03:28:38.612Z,18.20
2018-12-03T03:31:06.916Z,18.40
2018-12-03T03:33:35.199Z,16.67
2018-12-03T03:36:03.436Z,18.07
2018-12-03T03:38:31.667Z,18.80
2018-12-03T03:40:59.879Z,17.67
2018-12-03T03:43:28.175Z,16.73
2018-12-03T03:45:56.446Z,17.77
2018-12-03T03:48:24.851Z,16.67
2018-12-03T03:50:53.069Z,16.63
2018-12-03T03:53:21.281Z,16.77
2018-12-03T03:55:49.681Z,16.90
2018-12-03T03:58:17.877Z,18.13
2018-12-03T04:00:46.093Z,17.80
2018-12-03T04:03:14.417Z,16.93
2018-12-03T04:05:42.641Z,18.73
2018-12-03T04:08:10.885Z,18.57
2018-12-03T04:10:39.092Z,18.50
2018-12-03T04:13:07.389Z,17.60
2018-12-03T04:15:35.687Z,17.87
2018-12-03T04:18:03.902Z,17.80
2018-12-03T04:20:32.145Z,16.93
2018-12-03T04:23:00.417Z,17.57
2018-12-03T04:25:28.683Z,18.10
2018-12-03T04:27:56.945Z,18.17
2018-12-03T04:30:25.145Z,18.10
2018-12-03T04:32:54.063Z,17.30
2018-12-03T04:35:23.286Z,15.93
2018-12-03T04:37:51.581Z,15.80
2018-12-03T04:40:19.881Z,16.67
2018-12-03T04:42:48.237Z,15.53
2018-12-03T04:45:17.709Z,16.00
2018-12-03T04:47:46.936Z,15.57
2018-12-03T04:50:16.241Z,15.60
2018-12-03T04:52:44.473Z,14.57
2018-12-03T04:55:13.477Z,14.07
2018-12-03T04:57:41.734Z,14.50
2018-12-03T05:00:15.961Z,14.23
2018-12-03T05:02:44.923Z,15.67
2018-12-03T05:05:13.141Z,15.97
2018-12-03T05:07:41.381Z,14.83
2018-12-03T05:10:14.258Z,15.20
2018-12-03T05:12:43.185Z,15.63
2018-12-03T05:15:12.608Z,15.73
2018-12-03T05:17:41.191Z,16.03
2018-12-03T05:20:13.717Z,17.47
2018-12-03T05:22:41.974Z,17.27
2018-12-03T05:25:10.794Z,16.47
2018-12-03T05:27:39.132Z,17.20
2018-12-03T05:30:11.630Z,16.70
2018-12-03T05:32:40.293Z,16.83
2018-12-03T05:35:10.090Z,17.13
2018-12-03T05:37:38.400Z,16.63
2018-12-03T05:40:10.874Z,16.23
2018-12-03T05:42:39.143Z,16.90
2018-12-03T05:45:08.438Z,14.97
2018-12-03T05:47:36.727Z,15.33
2018-12-03T05:50:06.894Z,16.03
2018-12-03T05:52:35.109Z,15.67
2018-12-03T05:55:03.420Z,16.70
2018-12-03T05:57:31.694Z,14.97
2018-12-03T05:59:59.965Z,14.77
2018-12-03T06:02:28.239Z,16.93
2018-12-03T06:04:56.532Z,15.80
2018-12-03T06:07:24.968Z,15.17
2018-12-03T06:09:53.202Z,15.47
2018-12-03T06:12:21.444Z,16.07
2018-12-03T06:14:49.766Z,13.93
2018-12-03T06:17:17.998Z,15.67
2018-12-03T06:22:39.454Z,15.17
2018-12-03T06:25:12.349Z,16.00
2018-12-03T06:27:40.573Z,15.67
2018-12-03T06:30:10.892Z,15.70
2018-12-03T06:32:39.129Z,15.57
2018-12-03T06:35:09.074Z,14.93
2018-12-03T06:37:37.279Z,14.63
2018-12-03T06:40:13.278Z,14.27
2018-12-03T06:42:41.519Z,14.00
2018-12-03T06:45:12.177Z,14.43
2018-12-03T06:47:42.702Z,14.70
2018-12-03T06:50:11.305Z,13.50
2018-12-03T06:52:39.740Z,14.57
2018-12-03T06:55:09.578Z,15.00
2018-12-03T06:57:37.904Z,13.63
2018-12-03T07:00:14.825Z,14.40
2018-12-03T07:02:43.398Z,13.40
2018-12-03T07:05:12.067Z,13.07
2018-12-03T07:07:40.904Z,11.00
2018-12-03T07:10:19.179Z,10.73
2018-12-03T07:12:51.972Z,9.33
2018-12-03T07:15:21.486Z,10.60
2018-12-03T07:17:51.274Z,10.00
2018-12-03T07:20:19.488Z,11.00
2018-12-03T07:22:47.722Z,10.10
2018-12-03T07:25:15.973Z,9.53
2018-12-03T07:27:44.222Z,9.00
2018-12-03T07:30:28.333Z,8.70
2018-12-03T07:32:56.571Z,8.67
2018-12-03T07:35:24.828Z,8.03
2018-12-03T07:37:55.193Z,7.40
2018-12-03T07:40:23.416Z,6.77
2018-12-03T07:42:51.658Z,5.93
2018-12-03T07:45:21.242Z,6.30
2018-12-03T07:47:49.654Z,5.97
2018-12-03T07:50:18.946Z,4.97
2018-12-03T07:52:47.264Z,5.40
2018-12-03T07:55:16.758Z,5.67
2018-12-03T07:57:46.654Z,5.30
2018-12-03T08:00:18.440Z,5.63
2018-12-03T08:02:46.730Z,5.00
2018-12-03T08:05:14.995Z,5.37
2018-12-03T08:07:43.326Z,4.50
2018-12-03T08:10:13.846Z,5.20
2018-12-03T08:12:42.172Z,5.73
2018-12-03T08:15:11.995Z,5.30
2018-12-03T08:17:40.414Z,5.43
2018-12-03T08:20:26.859Z,5.70
2018-12-03T08:22:57.698Z,6.43
2018-12-03T08:25:25.997Z,6.37
2018-12-03T08:27:54.252Z,6.70
2018-12-03T08:30:22.554Z,6.23
2018-12-03T08:32:50.780Z,6.67
2018-12-03T08:35:19.214Z,6.27
2018-12-03T08:37:47.506Z,7.17
2018-12-03T08:40:17.820Z,6.80
2018-12-03T08:42:48.407Z,7.03
2018-12-03T08:45:16.672Z,6.37
2018-12-03T08:47:45.432Z,6.57
2018-12-03T08:50:16.100Z,6.83
2018-12-03T08:52:44.367Z,7.20
2018-12-03T08:55:12.915Z,7.10
2018-12-03T08:57:41.145Z,6.37
2018-12-03T09:00:13.928Z,6.30
2018-12-03T09:03:02.459Z,6.13
2018-12-03T09:05:36.751Z,6.17
2018-12-03T09:08:06.029Z,6.30
2018-12-03T09:10:34.306Z,6.00
2018-12-03T09:13:23.418Z,6.90
2018-12-03T09:15:55.832Z,7.13
2018-12-03T09:18:24.274Z,7.13
2018-12-03T09:20:52.588Z,7.60
2018-12-03T09:23:20.866Z,7.60
2018-12-03T09:25:49.069Z,7.20
2018-12-03T09:28:17.361Z,8.57
2018-12-03T09:30:45.686Z,8.37
2018-12-03T09:33:13.915Z,8.33
2018-12-03T09:35:42.209Z,9.30
2018-12-03T09:38:10.474Z,9.37
2018-12-03T09:40:38.862Z,8.23
2018-12-03T09:43:07.094Z,7.27
2018-12-03T09:45:35.373Z,6.83
2018-12-03T09:48:03.654Z,6.13
2018-12-03T09:50:31.884Z,5.67
2018-12-03T09:53:07.120Z,4.53
2018-12-03T09:55:35.435Z,4.47
2018-12-03T09:58:07.457Z,5.73
2018-12-03T10:00:35.827Z,4.47
2018-12-03T10:03:12.812Z,4.73
2018-12-03T10:05:48.730Z,4.97
2018-12-03T10:08:17.022Z,5.43
2018-12-03T10:10:49.722Z,4.70
2018-12-03T10:13:17.961Z,5.17
2018-12-03T10:15:46.221Z,5.07
2018-12-03T10:18:14.724Z,4.77
2018-12-03T10:20:47.762Z,4.97
2018-12-03T10:23:16.099Z,5.47
2018-12-03T10:25:44.456Z,5.27
2018-12-03T10:28:12.732Z,5.00
2018-12-03T10:30:40.996Z,4.97
2018-12-03T10:33:09.271Z,5.20
2018-12-03T10:35:38.790Z,5.07
2018-12-03T10:38:15.729Z,5.53
2018-12-03T10:40:47.795Z,4.40
2018-12-03T10:43:16.059Z,4.27
2018-12-03T10:45:44.390Z,4.50
2018-12-03T10:48:12.689Z,5.17
2018-12-03T10:50:40.950Z,5.00
2018-12-03T10:53:09.256Z,4.83
2018-12-03T10:55:41.617Z,4.70
2018-12-03T10:58:11.299Z,5.97
2018-12-03T11:00:44.885Z,5.80
2018-12-03T11:03:13.761Z,5.60
2018-12-03T11:05:47.917Z,5.17
2018-12-03T11:08:22.413Z,6.77
2018-12-03T11:10:51.627Z,5.30
2018-12-03T11:13:20.053Z,5.37
2018-12-03T11:15:48.300Z,5.50
2018-12-03T11:18:16.550Z,5.80
2018-12-03T11:20:44.819Z,5.27
2018-12-03T11:23:19.384Z,4.83
2018-12-03T11:25:47.643Z,6.03
2018-12-03T11:28:16.900Z,5.07
2018-12-03T11:30:49.825Z,5.27
2018-12-03T11:33:23.427Z,5.67
2018-12-03T11:35:52.785Z,5.93
2018-12-03T11:38:57.091Z,7.50
2018-12-03T11:41:25.393Z,5.87
2018-12-03T11:43:53.709Z,4.10
2018-12-03T11:46:22.026Z,5.03
2018-12-03T11:48:50.314Z,6.53
2018-12-03T11:51:18.680Z,6.30
2018-12-03T11:53:47.002Z,4.93
2018-12-03T11:56:15.317Z,6.47
2018-12-03T11:58:43.618Z,6.63
2018-12-03T12:01:11.917Z,5.60
2018-12-03T12:03:42.996Z,6.30
2018-12-03T12:06:11.188Z,5.57
2018-12-03T12:08:39.459Z,6.80
2018-12-03T12:11:07.771Z,6.13
2018-12-03T12:13:36.115Z,5.27
2018-12-03T12:16:04.527Z,5.37
2018-12-03T12:18:32.774Z,4.77
2018-12-03T12:21:01.051Z,5.30
2018-12-03T12:23:29.326Z,5.37
2018-12-03T12:25:57.606Z,6.30
2018-12-03T12:28:25.963Z,7.03
2018-12-03T12:30:54.267Z,5.73
2018-12-03T12:33:22.592Z,5.77
2018-12-03T12:35:50.845Z,6.53
2018-12-03T12:38:19.172Z,5.60
2018-12-03T12:40:47.414Z,5.87
2018-12-03T12:43:15.780Z,5.70
2018-12-03T12:45:56.267Z,6.43
2018-12-03T12:48:24.528Z,5.83
2018-12-03T12:50:52.767Z,5.17
2018-12-03T12:53:21.004Z,5.70
2018-12-03T12:55:49.264Z,6.10
2018-12-03T12:58:17.595Z,5.90
2018-12-03T13:00:45.823Z,5.13
2018-12-03T13:03:14.125Z,5.60
2018-12-03T13:05:42.409Z,5.03
2018-12-03T13:08:10.663Z,5.60
2018-12-03T13:10:38.939Z,5.83
2018-12-03T13:13:07.237Z,5.80
2018-12-03T13:15:35.515Z,5.47
2018-12-03T13:18:03.890Z,5.70
2018-12-03T13:20:32.113Z,4.97
2018-12-03T13:23:06.956Z,5.90
2018-12-03T13:25:35.254Z,6.63
2018-12-03T13:28:03.644Z,6.33
2018-12-03T13:30:31.970Z,5.97
2018-12-03T13:33:00.266Z,5.50
2018-12-03T13:35:29.252Z,6.50
2018-12-03T13:37:57.110Z,5.97
2018-12-03T13:40:25.436Z,7.53
2018-12-03T13:42:53.760Z,6.37
2018-12-03T13:45:23.988Z,6.43
2018-12-03T13:47:53.199Z,5.47
2018-12-03T13:50:21.431Z,6.07
2018-12-03T13:52:49.707Z,5.50
2018-12-03T13:55:19.116Z,6.13
2018-12-03T13:57:47.358Z,6.07
2018-12-03T14:00:21.036Z,5.83
2018-12-03T14:03:00.339Z,6.40
2018-12-03T14:05:30.396Z,5.50
2018-12-03T14:08:09.593Z,5.43
2018-12-03T14:11:54.147Z,5.60
2018-12-03T14:16:36.288Z,5.40
2018-12-03T14:19:09.661Z,5.70
2018-12-03T14:21:41.862Z,5.40
2018-12-03T14:24:19.767Z,6.47
2018-12-03T14:26:48.037Z,5.57
2018-12-03T14:29:16.294Z,6.30
2018-12-03T14:31:44.606Z,5.87
2018-12-03T14:34:19.914Z,7.00
2018-12-03T14:36:48.161Z,6.50
2018-12-03T14:39:16.419Z,6.80
2018-12-03T14:41:44.735Z,5.60
2018-12-03T14:44:13.051Z,7.27
2018-12-03T14:46:41.353Z,6.03
2018-12-03T14:49:09.701Z,6.60
2018-12-03T14:51:38.069Z,6.10
2018-12-03T14:54:06.459Z,5.20
2018-12-03T14:56:34.744Z,5.70
2018-12-03T14:59:03.066Z,5.80
2018-12-03T15:01:32.220Z,5.63
2018-12-03T15:04:05.092Z,5.73
2018-12-03T15:06:33.357Z,5.67
2018-12-03T15:09:01.701Z,7.33
2018-12-03T15:11:29.985Z,7.97
2018-12-03T15:13:58.298Z,7.10
2018-12-03T15:16:26.607Z,7.10
2018-12-03T15:18:54.849Z,7.80
2018-12-03T15:21:23.083Z,7.30
2018-12-03T15:23:51.446Z,6.83
2018-12-03T15:26:19.782Z,7.37
2018-12-03T15:28:48.099Z,7.57
2018-12-03T15:31:16.356Z,6.93
2018-12-03T15:33:44.642Z,7.50
2018-12-03T15:36:12.885Z,7.37
2018-12-03T15:38:41.091Z,8.40
2018-12-03T15:41:09.333Z,7.10
2018-12-03T15:43:38.829Z,7.30
2018-12-03T15:46:07.208Z,6.83
2018-12-03T15:48:35.520Z,6.87
2018-12-03T15:51:03.793Z,6.80
2018-12-03T15:53:32.063Z,7.20
2018-12-03T15:56:00.462Z,8.10
2018-12-03T15:58:28.869Z,7.43
2018-12-03T16:00:57.197Z,6.17
2018-12-03T16:03:25.618Z,7.73
2018-12-03T16:05:54.548Z,7.60
2018-12-03T16:08:22.994Z,7.87
2018-12-03T16:10:51.298Z,7.23
2018-12-03T16:13:19.688Z,8.13
2018-12-03T16:15:48.163Z,8.83
2018-12-03T16:18:16.752Z,8.10
2018-12-03T16:20:45.161Z,8.03
2018-12-03T16:23:13.430Z,7.30
2018-12-03T16:25:41.744Z,8.67
2018-12-03T16:28:10.176Z,9.80
2018-12-03T16:30:38.455Z,8.33
2018-12-03T16:33:06.764Z,9.23
2018-12-03T16:35:36.685Z,9.50
2018-12-03T16:38:04.940Z,8.40
2018-12-03T16:40:33.243Z,7.30
2018-12-03T16:43:01.527Z,7.77
2018-12-03T16:45:29.897Z,7.83
2018-12-03T16:47:58.183Z,8.97
2018-12-03T16:50:26.539Z,8.53
2018-12-03T16:52:54.872Z,9.80
2018-12-03T16:55:23.220Z,8.57
2018-12-03T16:57:51.810Z,8.33
2018-12-03T17:00:20.142Z,9.30
2018-12-03T17:02:48.393Z,10.10
2018-12-03T17:05:16.653Z,9.00
2018-12-03T17:07:44.981Z,10.03
2018-12-03T17:10:17.761Z,9.23
2018-12-03T17:12:46.465Z,8.50
2018-12-03T17:15:14.736Z,10.87
2018-12-03T17:17:43.020Z,9.87
2018-12-03T17:20:13.197Z,10.07
2018-12-03T17:23:50.702Z,12.23
2018-12-03T17:26:18.977Z,9.53
2018-12-03T17:28:47.190Z,9.60
2018-12-03T17:34:08.790Z,10.17
2018-12-03T17:36:43.234Z,11.17
2018-12-03T17:39:11.509Z,9.33
2018-12-03T17:41:39.764Z,9.60
2018-12-03T17:44:08.382Z,9.20
2018-12-03T17:46:36.685Z,8.77
2018-12-03T17:49:04.951Z,8.63
2018-12-03T17:51:33.149Z,8.80
2018-12-03T17:54:01.500Z,9.20
2018-12-03T17:56:29.757Z,8.67
2018-12-03T17:58:57.990Z,8.97
2018-12-03T18:01:26.265Z,8.23
2018-12-03T18:06:47.327Z,7.97
2018-12-03T18:09:15.726Z,8.13
2018-12-03T18:11:44.043Z,8.83
2018-12-03T18:14:43.325Z,8.17
2018-12-03T18:17:11.978Z,9.10
2018-12-03T18:19:40.256Z,9.23
2018-12-03T18:22:08.739Z,8.60
2018-12-03T18:24:37.058Z,9.40
2018-12-03T18:27:05.413Z,8.60
2018-12-03T18:29:33.718Z,8.63
2018-12-03T18:32:02.055Z,8.30
2018-12-03T18:34:30.363Z,10.70
2018-12-03T18:36:58.627Z,9.43
2018-12-03T18:39:26.888Z,8.27
2018-12-03T18:41:55.160Z,8.60
2018-12-03T18:44:23.431Z,8.43
2018-12-03T18:46:51.732Z,8.27
2018-12-03T18:49:27.637Z,8.50
2018-12-03T18:51:55.976Z,8.83
2018-12-03T18:54:24.333Z,7.60
2018-12-03T18:56:52.592Z,7.17
2018-12-03T18:59:20.888Z,8.20
2018-12-03T19:01:49.103Z,7.47
2018-12-03T19:04:17.382Z,8.33
2018-12-03T19:06:45.644Z,7.10
2018-12-03T19:09:13.996Z,7.30
2018-12-03T19:11:42.294Z,8.17
2018-12-03T19:14:10.653Z,8.43
2018-12-03T19:16:38.981Z,7.87
2018-12-03T19:19:07.230Z,7.43
2018-12-03T19:21:35.510Z,8.03
2018-12-03T19:24:04.060Z,7.27
2018-12-03T19:26:32.461Z,7.10
2018-12-03T19:29:00.852Z,6.93
2018-12-03T19:31:48.423Z,6.43
2018-12-03T19:34:16.758Z,7.33
2018-12-03T19:37:07.747Z,7.43
2018-12-03T19:39:36.125Z,7.60
2018-12-03T19:42:04.484Z,8.03
2018-12-03T19:44:33.878Z,7.67
2018-12-03T19:47:02.136Z,8.40
2018-12-03T19:49:30.519Z,8.93
2018-12-03T19:51:59.783Z,8.80
2018-12-03T19:54:28.099Z,9.63
2018-12-03T19:56:57.830Z,8.40
2018-12-03T19:59:28.753Z,10.17
2018-12-03T20:01:57.106Z,9.33
2018-12-03T20:04:30.737Z,16.23
2018-12-03T20:06:59.221Z,33.77
2018-12-03T20:09:27.638Z,14.17
2018-12-03T20:11:56.067Z,14.90
2018-12-03T20:14:24.393Z,14.43
2018-12-03T20:16:52.908Z,12.37
2018-12-03T20:19:21.223Z,19.70
2018-12-03T20:21:51.217Z,14.37
2018-12-03T20:24:22.259Z,13.43
2018-12-03T20:27:04.514Z,10.70
2018-12-03T20:29:39.236Z,10.00
2018-12-03T20:32:17.909Z,12.40
2018-12-03T20:34:54.396Z,13.53
2018-12-03T20:37:48.069Z,11.97
2018-12-03T20:40:45.149Z,12.17
2018-12-03T20:43:17.948Z,11.97
2018-12-03T20:45:57.914Z,12.27
2018-12-03T20:48:34.510Z,11.53
2018-12-03T20:51:10.378Z,10.40
2018-12-03T20:53:45.070Z,10.67
2018-12-03T20:56:13.968Z,10.83
2018-12-03T20:58:42.225Z,10.93
2018-12-03T21:01:10.647Z,11.70
2018-12-03T21:03:39.096Z,11.30
2018-12-03T21:06:07.410Z,12.40
2018-12-03T21:08:35.754Z,13.07
2018-12-03T21:11:04.187Z,11.20
2018-12-03T21:16:26.081Z,10.60
2018-12-03T21:18:54.577Z,11.20
2018-12-03T21:21:22.977Z,9.63
2018-12-03T21:23:51.264Z,9.10
2018-12-03T21:26:19.679Z,9.87
2018-12-03T21:28:47.931Z,11.30
2018-12-03T21:31:16.349Z,10.40
2018-12-03T21:33:44.591Z,12.27
2018-12-03T21:39:07.724Z,12.07
2018-12-03T21:41:36.090Z,9.70
2018-12-03T21:44:04.603Z,6.37
2018-12-03T21:46:32.877Z,6.40
2018-12-03T21:49:01.175Z,4.20
2018-12-03T21:51:29.550Z,4.00
2018-12-03T21:53:58.043Z,4.10
2018-12-03T21:56:26.458Z,3.07
2018-12-03T21:58:54.776Z,3.27
2018-12-03T22:01:23.183Z,3.90
2018-12-03T22:03:51.504Z,3.07
2018-12-03T22:06:19.794Z,2.83
2018-12-03T22:08:48.205Z,3.23
2018-12-03T22:11:16.513Z,4.10
2018-12-03T22:13:44.791Z,3.37
2018-12-03T22:16:13.169Z,3.33
2018-12-03T22:18:41.383Z,2.43
2018-12-03T22:21:09.757Z,1.60
2018-12-03T22:23:37.988Z,1.97
2018-12-03T22:26:06.362Z,1.47
2018-12-03T22:28:34.693Z,2.03
2018-12-03T22:31:03.078Z,1.70
2018-12-03T22:33:31.299Z,1.70
2018-12-03T22:35:59.550Z,1.80
2018-12-03T22:38:27.823Z,1.60
2018-12-03T22:40:56.082Z,1.87
2018-12-03T22:43:24.310Z,1.80
2018-12-03T22:45:52.598Z,1.57
2018-12-03T22:48:20.867Z,1.57
2018-12-03T22:50:49.209Z,1.90
2018-12-03T22:53:17.668Z,1.67
2018-12-03T22:55:45.994Z,2.13
2018-12-03T22:58:14.291Z,1.70
2018-12-03T23:00:44.714Z,1.60
2018-12-03T23:03:13.174Z,1.60
2018-12-03T23:05:41.487Z,1.40
2018-12-03T23:08:09.768Z,1.60
2018-12-03T23:10:38.025Z,1.57
2018-12-03T23:13:06.378Z,1.57
2018-12-03T23:15:34.720Z,1.87
2018-12-03T23:18:03.000Z,1.57
2018-12-03T23:20:31.470Z,2.20
2018-12-03T23:22:59.707Z,2.03
2018-12-03T23:25:27.999Z,1.63
2018-12-03T23:27:56.275Z,1.60
2018-12-03T23:30:24.732Z,2.53
2018-12-03T23:32:52.942Z,1.60
2018-12-03T23:35:21.235Z,2.43
2018-12-03T23:37:49.481Z,2.13
2018-12-03T23:40:17.728Z,2.00
2018-12-03T23:42:46.092Z,1.67
2018-12-03T23:45:14.432Z,1.83
2018-12-03T23:47:42.730Z,2.17
2018-12-03T23:50:11.056Z,2.10
2018-12-03T23:52:39.335Z,2.43
2018-12-03T23:55:07.646Z,1.90
2018-12-03T23:57:35.923Z,2.20
